createdAt,value
2019-03-21T00:02:02.766Z,11.90
2019-03-21T00:04:32.010Z,11.80
2019-03-21T00:07:01.120Z,11.80
2019-03-21T00:09:30.396Z,11.90
2019-03-21T00:12:04.373Z,11.80
2019-03-21T00:14:42.307Z,11.80
2019-03-21T00:17:17.137Z,11.70
2019-03-21T00:19:46.239Z,11.70
2019-03-21T00:22:15.329Z,11.70
2019-03-21T00:24:44.422Z,11.80
2019-03-21T00:27:13.532Z,11.70
2019-03-21T00:29:42.624Z,11.80
2019-03-21T00:32:11.706Z,11.70
2019-03-21T00:34:41.005Z,11.70
2019-03-21T00:37:10.105Z,11.70
2019-03-21T00:39:39.205Z,11.70
2019-03-21T00:42:08.199Z,11.70
2019-03-21T00:44:37.282Z,11.70
2019-03-21T00:47:06.377Z,11.70
2019-03-21T00:49:35.676Z,11.60
2019-03-21T00:52:05.184Z,11.70
2019-03-21T00:54:34.510Z,11.70
2019-03-21T00:57:03.793Z,11.70
2019-03-21T00:59:32.877Z,11.60
2019-03-21T01:02:02.378Z,11.50
2019-03-21T01:04:31.473Z,11.50
2019-03-21T01:07:00.567Z,11.50
2019-03-21T01:09:29.669Z,11.50
2019-03-21T01:11:58.966Z,11.40
2019-03-21T01:14:29.955Z,11.40
2019-03-21T01:16:58.789Z,11.40
2019-03-21T01:19:28.090Z,11.30
2019-03-21T01:21:57.184Z,11.30
2019-03-21T01:24:26.285Z,11.20
2019-03-21T01:26:55.374Z,11.20
2019-03-21T01:29:24.523Z,11.10
2019-03-21T01:31:54.579Z,11.00
2019-03-21T01:34:23.886Z,11.00
2019-03-21T01:36:52.983Z,10.90
2019-03-21T01:39:22.299Z,10.90
2019-03-21T01:41:51.645Z,10.90
2019-03-21T01:44:20.883Z,10.80
2019-03-21T01:46:49.976Z,10.70
2019-03-21T01:49:19.083Z,10.60
2019-03-21T01:51:48.372Z,10.60
2019-03-21T01:54:17.464Z,10.50
2019-03-21T01:56:46.560Z,10.50
2019-03-21T01:59:15.554Z,10.60
2019-03-21T02:01:44.751Z,10.50
2019-03-21T02:04:13.645Z,10.50
2019-03-21T02:06:42.944Z,10.40
2019-03-21T02:09:12.041Z,10.40
2019-03-21T02:11:41.153Z,10.40
2019-03-21T02:14:10.224Z,10.50
2019-03-21T02:16:39.324Z,10.50
2019-03-21T02:19:08.412Z,10.50
2019-03-21T02:21:37.506Z,10.50
2019-03-21T02:24:06.806Z,10.50
2019-03-21T02:26:35.900Z,10.50
2019-03-21T02:29:05.301Z,10.50
2019-03-21T02:31:34.402Z,10.50
2019-03-21T02:34:03.599Z,10.50
2019-03-21T02:36:32.688Z,10.50
2019-03-21T02:39:01.802Z,10.50
2019-03-21T02:41:30.887Z,10.50
2019-03-21T02:44:00.205Z,10.50
2019-03-21T02:46:29.687Z,10.40
2019-03-21T02:48:58.998Z,10.40
2019-03-21T02:51:28.288Z,10.40
2019-03-21T02:53:57.376Z,10.40
2019-03-21T02:56:27.713Z,10.30
2019-03-21T02:58:57.049Z,10.30
2019-03-21T03:01:26.303Z,10.30
2019-03-21T03:03:55.608Z,10.20
2019-03-21T03:06:24.698Z,10.20
2019-03-21T03:08:53.791Z,10.10
2019-03-21T03:11:25.290Z,10.10
2019-03-21T03:13:54.239Z,10.10
2019-03-21T03:16:24.323Z,10.00
2019-03-21T03:18:53.447Z,10.00
2019-03-21T03:21:23.548Z,10.00
2019-03-21T03:23:52.657Z,10.00
2019-03-21T03:26:21.757Z,10.00
2019-03-21T03:28:50.853Z,10.00
2019-03-21T03:31:20.467Z,10.00
2019-03-21T03:33:49.798Z,10.10
2019-03-21T03:36:19.168Z,10.10
2019-03-21T03:38:48.257Z,10.10
2019-03-21T03:41:19.458Z,10.10
2019-03-21T03:43:48.695Z,10.10
2019-03-21T03:46:17.792Z,10.00
2019-03-21T03:48:46.881Z,10.00
2019-03-21T03:51:16.372Z,10.00
2019-03-21T03:53:45.484Z,9.90
2019-03-21T03:56:14.680Z,10.00
2019-03-21T03:58:46.752Z,10.00
2019-03-21T04:01:16.452Z,10.00
2019-03-21T04:03:45.760Z,10.00
2019-03-21T04:06:15.086Z,10.00
2019-03-21T04:08:44.155Z,10.00
2019-03-21T04:11:13.701Z,10.10
2019-03-21T04:13:42.746Z,10.10
2019-03-21T04:16:12.254Z,10.10
2019-03-21T04:18:41.248Z,10.20
2019-03-21T04:21:15.394Z,10.10
2019-03-21T04:23:44.464Z,10.10
2019-03-21T04:26:16.416Z,10.10
2019-03-21T04:28:45.505Z,10.10
2019-03-21T04:31:14.803Z,10.20
2019-03-21T04:33:45.757Z,10.30
2019-03-21T04:36:14.944Z,10.30
2019-03-21T04:38:44.146Z,10.40
2019-03-21T04:41:13.715Z,10.40
2019-03-21T04:43:42.737Z,10.50
2019-03-21T04:46:11.829Z,10.40
2019-03-21T04:48:40.923Z,10.40
2019-03-21T04:51:10.639Z,10.40
2019-03-21T04:53:39.736Z,10.40
2019-03-21T04:56:09.029Z,10.30
2019-03-21T04:58:38.126Z,10.40
2019-03-21T05:01:07.224Z,10.30
2019-03-21T05:03:36.415Z,10.40
2019-03-21T05:06:05.722Z,10.30
2019-03-21T05:08:34.809Z,10.30
2019-03-21T05:11:03.906Z,10.30
2019-03-21T05:13:34.114Z,10.30
2019-03-21T05:16:14.082Z,10.40
2019-03-21T05:18:46.139Z,10.40
2019-03-21T05:21:18.817Z,10.40
2019-03-21T05:23:48.231Z,10.40
2019-03-21T05:26:17.312Z,10.30
2019-03-21T05:28:46.415Z,10.30
2019-03-21T05:31:24.310Z,10.20
2019-03-21T05:33:53.422Z,10.20
2019-03-21T05:36:25.175Z,10.20
2019-03-21T05:38:54.255Z,10.20
2019-03-21T05:41:23.772Z,10.20
2019-03-21T05:43:58.595Z,10.20
2019-03-21T05:46:27.735Z,10.20
2019-03-21T05:48:56.985Z,10.20
2019-03-21T05:51:26.297Z,10.20
2019-03-21T05:53:55.584Z,10.10
2019-03-21T05:56:24.676Z,10.00
2019-03-21T05:58:53.776Z,9.90
2019-03-21T06:01:23.031Z,9.90
2019-03-21T06:03:53.198Z,9.80
2019-03-21T06:06:34.268Z,9.80
2019-03-21T06:09:05.310Z,9.90
2019-03-21T06:11:34.417Z,9.90
2019-03-21T06:14:03.510Z,9.90
2019-03-21T06:16:37.597Z,9.90
2019-03-21T06:19:17.766Z,10.00
2019-03-21T06:22:08.058Z,10.00
2019-03-21T06:24:46.171Z,10.00
2019-03-21T06:27:29.386Z,10.00
2019-03-21T06:29:59.106Z,10.00
2019-03-21T06:32:28.983Z,9.90
2019-03-21T06:34:58.724Z,10.00
2019-03-21T06:37:29.051Z,10.00
2019-03-21T06:39:58.548Z,10.10
2019-03-21T06:42:28.368Z,10.10
2019-03-21T06:44:58.905Z,10.20
2019-03-21T06:47:29.679Z,10.30
2019-03-21T06:49:59.318Z,10.30
2019-03-21T06:55:05.393Z,10.50
2019-03-21T06:57:36.196Z,10.50
2019-03-21T07:00:08.720Z,10.60
2019-03-21T07:02:39.699Z,10.60
2019-03-21T07:05:10.394Z,10.70
2019-03-21T07:07:40.213Z,10.80
2019-03-21T07:10:11.237Z,10.80
2019-03-21T07:12:42.623Z,10.80
2019-03-21T07:15:13.658Z,10.90
2019-03-21T07:17:45.600Z,11.00
2019-03-21T07:20:16.177Z,11.10
2019-03-21T07:22:45.317Z,11.20
2019-03-21T07:25:14.516Z,11.20
2019-03-21T07:27:43.511Z,11.30
2019-03-21T07:30:14.850Z,11.30
2019-03-21T07:32:43.854Z,11.30
2019-03-21T07:35:13.161Z,11.50
2019-03-21T07:37:42.339Z,11.50
2019-03-21T07:40:14.504Z,11.50
2019-03-21T07:42:43.608Z,11.50
2019-03-21T07:45:31.947Z,11.50
2019-03-21T07:48:01.042Z,11.50
2019-03-21T07:50:30.137Z,11.50
2019-03-21T07:52:59.236Z,11.50
2019-03-21T07:55:28.474Z,11.50
2019-03-21T07:57:59.462Z,11.50
2019-03-21T08:00:28.358Z,11.40
2019-03-21T08:02:57.658Z,11.00
2019-03-21T08:05:26.753Z,10.70
2019-03-21T08:07:55.848Z,10.40
2019-03-21T08:10:24.941Z,10.20
2019-03-21T08:12:55.780Z,10.10
2019-03-21T08:15:24.975Z,10.00
2019-03-21T08:17:54.490Z,9.90
2019-03-21T08:20:23.598Z,9.90
2019-03-21T08:22:52.776Z,9.90
2019-03-21T08:25:21.771Z,9.90
2019-03-21T08:27:51.911Z,9.90
2019-03-21T08:30:24.270Z,9.90
2019-03-21T08:32:53.355Z,10.00
2019-03-21T08:35:22.443Z,10.00
2019-03-21T08:37:51.547Z,10.10
2019-03-21T08:40:20.634Z,10.20
2019-03-21T08:42:49.737Z,10.30
2019-03-21T08:45:18.745Z,10.30
2019-03-21T08:47:47.724Z,10.30
2019-03-21T08:50:17.012Z,10.20
2019-03-21T08:52:46.114Z,10.30
2019-03-21T08:55:15.228Z,10.20
2019-03-21T08:57:44.298Z,10.10
2019-03-21T09:00:14.827Z,10.20
2019-03-21T09:02:43.832Z,10.30
2019-03-21T09:05:13.450Z,10.40
2019-03-21T09:07:42.519Z,10.40
2019-03-21T09:10:12.437Z,10.50
2019-03-21T09:12:42.621Z,10.50
2019-03-21T09:15:12.570Z,10.70
2019-03-21T09:17:41.971Z,10.80
2019-03-21T09:20:11.503Z,10.90
2019-03-21T09:22:41.874Z,10.90
2019-03-21T09:25:11.509Z,10.90
2019-03-21T09:27:40.506Z,11.00
2019-03-21T09:30:14.613Z,11.10
2019-03-21T09:32:43.708Z,11.20
2019-03-21T09:35:13.177Z,11.20
2019-03-21T09:37:42.333Z,11.20
2019-03-21T09:40:32.289Z,11.40
2019-03-21T09:43:03.196Z,11.50
2019-03-21T09:45:32.121Z,11.40
2019-03-21T09:48:01.218Z,11.30
2019-03-21T09:50:31.083Z,11.20
2019-03-21T09:53:00.438Z,11.00
2019-03-21T09:55:29.338Z,10.90
2019-03-21T09:57:58.316Z,10.90
2019-03-21T10:00:35.492Z,10.80
2019-03-21T10:03:05.617Z,10.80
2019-03-21T10:05:34.711Z,10.80
2019-03-21T10:08:28.133Z,11.00
2019-03-21T10:10:57.986Z,11.00
2019-03-21T10:13:27.192Z,11.00
2019-03-21T10:15:56.279Z,11.00
2019-03-21T10:18:25.370Z,10.80
2019-03-21T10:20:54.682Z,10.70
2019-03-21T10:23:23.775Z,10.60
2019-03-21T10:25:52.866Z,10.70
2019-03-21T10:28:21.812Z,10.60
2019-03-21T10:30:50.855Z,10.50
2019-03-21T10:33:19.939Z,10.50
2019-03-21T10:35:49.035Z,10.60
2019-03-21T10:38:18.135Z,10.80
2019-03-21T10:40:47.225Z,11.10
2019-03-21T10:43:16.326Z,11.40
2019-03-21T10:45:45.491Z,11.60
2019-03-21T10:48:14.716Z,11.80
2019-03-21T10:50:43.817Z,12.10
2019-03-21T10:53:12.904Z,12.40
2019-03-21T10:55:41.997Z,12.40
2019-03-21T10:58:11.194Z,12.50
2019-03-21T11:00:40.393Z,12.90
2019-03-21T11:03:09.695Z,13.00
2019-03-21T11:05:38.785Z,13.60
2019-03-21T11:08:08.291Z,13.90
2019-03-21T11:10:37.384Z,14.00
2019-03-21T11:13:07.094Z,13.80
2019-03-21T11:15:39.264Z,13.90
2019-03-21T11:18:08.380Z,14.20
2019-03-21T11:20:41.343Z,14.80
2019-03-21T11:23:10.648Z,15.20
2019-03-21T11:25:39.749Z,15.70
2019-03-21T11:28:09.446Z,16.20
2019-03-21T11:30:40.997Z,16.70
2019-03-21T11:33:10.094Z,16.90
2019-03-21T11:35:39.392Z,17.00
2019-03-21T11:38:08.853Z,17.50
2019-03-21T11:40:38.203Z,17.80
2019-03-21T11:43:08.946Z,17.60
2019-03-21T11:45:38.232Z,17.90
2019-03-21T11:48:07.440Z,18.30
2019-03-21T11:50:36.533Z,18.80
2019-03-21T11:53:05.828Z,18.60
2019-03-21T11:55:35.325Z,18.40
2019-03-21T11:58:04.623Z,18.60
2019-03-21T12:00:43.066Z,18.70
2019-03-21T12:03:04.534Z,19.00
2019-03-21T12:05:33.804Z,19.10
2019-03-21T12:08:02.849Z,19.30
2019-03-21T12:10:31.941Z,19.50
2019-03-21T12:13:01.140Z,19.80
2019-03-21T12:15:30.135Z,20.00
2019-03-21T12:17:59.432Z,19.40
2019-03-21T12:20:32.616Z,19.00
2019-03-21T12:23:01.718Z,18.50
2019-03-21T12:25:30.823Z,18.40
2019-03-21T12:28:01.494Z,18.30
2019-03-21T12:30:35.554Z,18.80
2019-03-21T12:33:05.472Z,19.30
2019-03-21T12:35:34.569Z,19.50
2019-03-21T12:38:03.980Z,19.60
2019-03-21T12:40:32.958Z,19.60
2019-03-21T12:43:01.859Z,19.40
2019-03-21T12:45:31.148Z,19.40
2019-03-21T12:48:00.243Z,19.20
2019-03-21T12:50:29.337Z,18.70
2019-03-21T12:52:58.440Z,17.90
2019-03-21T12:55:27.528Z,17.70
2019-03-21T12:57:56.724Z,17.70
2019-03-21T13:00:37.595Z,17.60
2019-03-21T13:03:07.713Z,17.60
2019-03-21T13:05:37.016Z,17.70
2019-03-21T13:08:06.319Z,18.00
2019-03-21T13:10:35.712Z,18.20
2019-03-21T13:13:07.349Z,18.10
2019-03-21T13:15:36.879Z,18.20
2019-03-21T13:18:06.383Z,17.90
2019-03-21T13:20:35.480Z,17.80
2019-03-21T13:23:05.182Z,18.00
2019-03-21T13:25:34.282Z,18.00
2019-03-21T13:28:03.371Z,18.00
2019-03-21T13:30:32.680Z,17.90
2019-03-21T13:33:01.767Z,18.10
2019-03-21T13:35:32.985Z,18.10
2019-03-21T13:38:01.598Z,18.70
2019-03-21T13:40:30.688Z,18.80
2019-03-21T13:42:59.794Z,18.40
2019-03-21T13:45:28.881Z,18.20
2019-03-21T13:47:58.431Z,18.40
2019-03-21T13:50:27.689Z,18.00
2019-03-21T13:53:04.736Z,18.10
2019-03-21T13:55:27.513Z,18.30
2019-03-21T13:58:01.406Z,18.60
2019-03-21T14:00:30.412Z,18.50
2019-03-21T14:02:59.917Z,18.10
2019-03-21T14:05:29.009Z,18.10
2019-03-21T14:07:58.103Z,18.10
2019-03-21T14:10:27.267Z,17.90
2019-03-21T14:12:56.498Z,17.70
2019-03-21T14:15:25.594Z,17.50
2019-03-21T14:17:55.214Z,17.30
2019-03-21T14:20:24.357Z,17.30
2019-03-21T14:22:53.495Z,17.20
2019-03-21T14:25:22.600Z,17.00
2019-03-21T14:27:51.686Z,16.70
2019-03-21T14:30:21.238Z,16.10
2019-03-21T14:32:50.486Z,15.20
2019-03-21T14:35:19.479Z,14.50
2019-03-21T14:37:48.675Z,13.90
2019-03-21T14:40:17.772Z,13.40
2019-03-21T14:42:46.956Z,13.00
2019-03-21T14:45:17.122Z,12.80
2019-03-21T14:47:46.282Z,12.80
2019-03-21T14:50:16.628Z,12.90
2019-03-21T14:52:45.702Z,12.80
2019-03-21T14:55:15.820Z,12.60
2019-03-21T14:57:44.918Z,12.60
2019-03-21T15:00:18.898Z,12.70
2019-03-21T15:02:47.831Z,12.60
2019-03-21T15:05:16.910Z,12.50
2019-03-21T15:07:46.014Z,12.60
2019-03-21T15:10:18.785Z,12.50
2019-03-21T15:12:47.779Z,12.40
2019-03-21T15:15:17.182Z,12.10
2019-03-21T15:17:46.179Z,11.90
2019-03-21T15:20:17.009Z,11.80
2019-03-21T15:22:46.121Z,11.70
2019-03-21T15:25:15.413Z,11.60
2019-03-21T15:27:44.704Z,11.50
2019-03-21T15:30:16.840Z,11.60
2019-03-21T15:32:46.183Z,11.60
2019-03-21T15:35:16.628Z,11.60
2019-03-21T15:37:46.051Z,11.50
2019-03-21T15:40:15.870Z,11.50
2019-03-21T15:42:45.005Z,11.40
2019-03-21T15:45:23.193Z,11.20
2019-03-21T15:47:49.142Z,11.00
2019-03-21T15:50:38.482Z,10.90
2019-03-21T16:04:29.184Z,10.50
2019-03-21T16:06:58.179Z,10.50
2019-03-21T16:09:27.979Z,10.50
2019-03-21T16:11:57.075Z,10.50
2019-03-21T16:14:26.167Z,10.40
2019-03-21T16:16:55.263Z,10.30
2019-03-21T16:19:24.770Z,10.20
2019-03-21T16:21:55.174Z,10.20
2019-03-21T16:24:24.391Z,10.30
2019-03-21T16:26:53.485Z,10.30
2019-03-21T16:29:22.523Z,10.40
2019-03-21T16:31:51.782Z,10.50
2019-03-21T16:34:20.975Z,10.70
2019-03-21T16:36:50.274Z,10.70
2019-03-21T16:39:19.273Z,10.80
2019-03-21T16:41:50.314Z,10.80
2019-03-21T16:44:19.402Z,10.80
2019-03-21T16:46:48.313Z,10.80
2019-03-21T16:49:17.398Z,10.70
2019-03-21T16:54:31.141Z,10.70
2019-03-21T16:57:17.227Z,10.50
2019-03-21T16:59:56.282Z,10.40
2019-03-21T17:05:08.491Z,10.30
2019-03-21T17:07:37.582Z,10.40
2019-03-21T17:10:10.161Z,10.40
2019-03-21T17:12:40.711Z,10.40
2019-03-21T17:15:12.264Z,10.30
2019-03-21T17:17:41.756Z,10.30
2019-03-21T17:20:12.294Z,10.20
2019-03-21T17:22:41.666Z,10.20
2019-03-21T17:25:12.338Z,10.20
2019-03-21T17:27:41.853Z,10.10
2019-03-21T17:30:15.609Z,10.00
2019-03-21T17:32:44.978Z,10.00
2019-03-21T17:35:14.401Z,10.00
2019-03-21T17:37:43.856Z,9.90
2019-03-21T17:40:15.080Z,9.90
2019-03-21T17:42:44.186Z,9.90
2019-03-21T17:48:28.293Z,9.80
2019-03-21T17:50:58.175Z,9.80
2019-03-21T17:53:27.857Z,9.80
2019-03-21T17:55:57.346Z,9.80
2019-03-21T17:58:28.699Z,9.80
2019-03-21T18:00:59.581Z,9.80
2019-03-21T18:03:29.076Z,9.80
2019-03-21T18:05:58.239Z,9.80
2019-03-21T18:08:39.285Z,9.80
2019-03-21T18:11:08.856Z,9.70
2019-03-21T18:13:38.032Z,9.70
2019-03-21T18:16:07.556Z,9.70
2019-03-21T18:18:36.581Z,9.70
2019-03-21T18:21:05.521Z,9.70
2019-03-21T18:23:34.669Z,9.70
2019-03-21T18:26:04.501Z,9.80
2019-03-21T18:28:33.485Z,9.70
2019-03-21T18:31:02.561Z,9.70
2019-03-21T18:33:31.660Z,9.70
2019-03-21T18:36:00.755Z,9.60
2019-03-21T18:38:30.992Z,9.60
2019-03-21T18:40:59.959Z,9.60
2019-03-21T18:43:28.978Z,9.50
2019-03-21T18:45:58.364Z,9.50
2019-03-21T18:48:27.407Z,9.40
2019-03-21T18:50:56.362Z,9.40
2019-03-21T18:53:25.381Z,9.30
2019-03-21T18:55:54.295Z,9.30
2019-03-21T18:58:23.392Z,9.20
2019-03-21T19:00:52.558Z,9.10
2019-03-21T19:03:21.735Z,9.10
2019-03-21T19:05:50.728Z,9.10
2019-03-21T19:08:20.293Z,9.00
2019-03-21T19:10:49.553Z,9.10
2019-03-21T19:13:18.912Z,9.00
2019-03-21T19:15:48.268Z,9.00
2019-03-21T19:18:17.186Z,8.90
2019-03-21T19:20:46.459Z,8.90
2019-03-21T19:23:15.621Z,8.90
2019-03-21T19:25:45.276Z,8.90
2019-03-21T19:28:14.611Z,8.90
2019-03-21T19:30:44.025Z,8.90
2019-03-21T19:33:13.007Z,8.90
2019-03-21T19:35:42.860Z,8.90
2019-03-21T19:38:12.218Z,8.90
2019-03-21T19:40:41.424Z,8.90
2019-03-21T19:43:10.382Z,8.90
2019-03-21T19:45:39.398Z,8.90
2019-03-21T19:48:08.338Z,8.80
2019-03-21T19:50:37.375Z,8.90
2019-03-21T19:53:06.788Z,8.90
2019-03-21T19:55:35.729Z,8.80
2019-03-21T19:58:04.604Z,8.90
2019-03-21T20:00:33.553Z,8.80
2019-03-21T20:03:02.462Z,8.80
2019-03-21T20:05:31.417Z,8.70
2019-03-21T20:08:00.449Z,8.70
2019-03-21T20:10:29.607Z,8.70
2019-03-21T20:12:58.908Z,8.70
2019-03-21T20:15:27.822Z,8.70
2019-03-21T20:17:56.763Z,8.70
2019-03-21T20:20:25.869Z,8.80
2019-03-21T20:22:54.900Z,8.80
2019-03-21T20:25:23.977Z,8.80
2019-03-21T20:27:52.968Z,8.70
2019-03-21T20:30:22.578Z,8.70
2019-03-21T20:32:51.909Z,8.70
2019-03-21T20:35:20.972Z,8.60
2019-03-21T20:37:49.921Z,8.60
2019-03-21T20:40:20.127Z,8.70
2019-03-21T20:42:49.365Z,8.70
2019-03-21T20:45:19.745Z,8.70
2019-03-21T20:47:48.834Z,8.70
2019-03-21T20:50:18.882Z,8.70
2019-03-21T20:52:47.836Z,8.60
2019-03-21T20:55:17.023Z,8.60
2019-03-21T20:57:48.196Z,8.60
2019-03-21T21:00:20.135Z,8.50
2019-03-21T21:02:49.602Z,8.60
2019-03-21T21:05:18.602Z,8.60
2019-03-21T21:07:47.649Z,8.60
2019-03-21T21:10:16.885Z,8.60
2019-03-21T21:12:45.965Z,8.60
2019-03-21T21:15:16.532Z,8.60
2019-03-21T21:17:45.483Z,8.60
2019-03-21T21:20:18.576Z,8.60
2019-03-21T21:22:47.829Z,8.70
2019-03-21T21:25:16.889Z,8.60
2019-03-21T21:27:49.847Z,8.60
2019-03-21T21:30:19.306Z,8.60
2019-03-21T21:32:48.209Z,8.60
2019-03-21T21:35:17.170Z,8.50
2019-03-21T21:37:46.338Z,8.60
2019-03-21T21:40:17.132Z,8.50
2019-03-21T21:42:46.476Z,8.50
2019-03-21T21:45:18.886Z,8.60
2019-03-21T21:47:47.855Z,8.60
2019-03-21T21:50:18.241Z,8.70
2019-03-21T21:52:47.475Z,8.80
2019-03-21T21:55:16.518Z,8.80
2019-03-21T21:57:45.412Z,8.80
2019-03-21T22:00:21.685Z,8.80
2019-03-21T22:02:50.616Z,8.80
2019-03-21T22:05:19.567Z,8.70
2019-03-21T22:07:48.648Z,8.70
2019-03-21T22:10:17.711Z,8.80
2019-03-21T22:12:46.864Z,8.70
2019-03-21T22:15:16.541Z,8.80
2019-03-21T22:17:45.498Z,8.90
2019-03-21T22:20:16.433Z,8.90
2019-03-21T22:22:46.134Z,9.00
2019-03-21T22:25:15.376Z,9.10
2019-03-21T22:27:44.411Z,9.30
2019-03-21T22:30:19.022Z,9.40
2019-03-21T22:32:48.086Z,9.50
2019-03-21T22:35:17.098Z,9.60
2019-03-21T22:37:45.985Z,9.70
2019-03-21T22:40:16.713Z,9.80
2019-03-21T22:42:45.616Z,9.70
2019-03-21T22:45:16.682Z,9.70
2019-03-21T22:47:45.628Z,9.70
2019-03-21T22:50:18.412Z,9.70
2019-03-21T22:52:47.653Z,9.70
2019-03-21T22:55:16.807Z,9.80
2019-03-21T22:57:45.772Z,9.80
2019-03-21T23:00:29.762Z,9.80
2019-03-21T23:02:58.797Z,9.80
2019-03-21T23:05:27.824Z,9.90
2019-03-21T23:07:56.756Z,9.90
2019-03-21T23:10:25.661Z,9.90
2019-03-21T23:12:54.700Z,10.00
2019-03-21T23:15:23.692Z,10.00
2019-03-21T23:17:52.707Z,10.10
2019-03-21T23:20:21.672Z,10.10
2019-03-21T23:22:50.576Z,10.20
2019-03-21T23:25:19.585Z,10.20
2019-03-21T23:27:48.604Z,10.20
2019-03-21T23:30:20.462Z,10.20
2019-03-21T23:32:49.709Z,10.30
2019-03-21T23:35:18.668Z,10.30
2019-03-21T23:37:47.695Z,10.30
2019-03-21T23:40:17.020Z,10.30
2019-03-21T23:42:45.994Z,10.30
2019-03-21T23:45:15.476Z,10.30
2019-03-21T23:47:44.380Z,10.30
2019-03-21T23:50:15.446Z,10.30
2019-03-21T23:52:44.453Z,10.30
2019-03-21T23:55:14.128Z,10.30
2019-03-21T23:57:43.237Z,10.30
